Time;durP1;ratioP1;P1;durP2;ratioP2;P2;SDS_P1;SDS_P2;PMS_P1;PMS_P2;Temp;Humidity;BMP_temperature;BMP_pressure;BME280_temperature;BME280_humidity;BME280_pressure;Samples;Min_cycle;Max_cycle;Signal;HPM_P1;HPM_P2
2022/02/14 00:01:03;;;;;;;;;;;1.40;99.90;;;0.09;60.52;95230.31;10492235;28;1902;-79
2022/02/14 00:06:06;;;;;;;;;;;1.20;99.90;;;0.04;60.25;95233.59;10505331;28;1779;-79
2022/02/14 00:11:10;;;;;;;;;;;1.20;99.90;;;0.03;59.73;95223.28;10501306;28;1664;-79
2022/02/14 00:16:16;;;;;;;;;;;;;;;-0.06;59.92;95220.94;10498485;28;1601;-79
2022/02/14 00:21:19;;;;;;;;;;;;;;;-0.11;60.18;95212.84;10490343;28;2251;-81
2022/02/14 00:26:23;;;;;;;;;;;;;;;-0.01;58.67;95209.69;10503875;28;1399;-79
2022/02/14 00:31:27;;;;;;;;;;;;;;;0.07;57.99;95196.19;10517170;28;1756;-77
2022/02/14 00:36:30;;;;;;;;;;;1.00;99.90;;;0.12;57.36;95192.84;10506054;28;1756;-80
2022/02/14 00:41:33;;;;;;;;;;;1.20;99.90;;;0.09;56.70;95193.31;10500225;28;1965;-78
2022/02/14 00:46:38;;;;;;;;;;;1.90;99.90;;;-0.02;57.73;95195.66;10497932;28;1617;-79
2022/02/14 00:51:43;;;;;;;;;;;1.10;99.90;;;-0.16;58.43;95188.91;10512450;28;2113;-79
2022/02/14 00:56:46;;;;;;;;;;;1.20;99.90;;;-0.15;57.75;95181.81;10496292;28;2574;-77
2022/02/14 01:01:50;;;;;;;;;;;1.10;99.90;;;0.01;56.41;95172.47;10500679;28;1922;-78
2022/02/14 01:06:53;;;;;;;;;;;1.10;99.90;;;-0.01;56.48;95162.91;10501250;28;1844;-78
2022/02/14 01:11:56;;;;;;;;;;;1.10;99.90;;;0.08;55.79;95171.38;10506641;28;1804;-79
2022/02/14 01:17:00;;;;;;;;;;;1.10;99.90;;;0.12;54.98;95161.13;10499732;28;1746;-78
2022/02/14 01:22:03;;;;;;;;;;;1.50;99.90;;;0.05;55.07;95158.59;10503351;28;1910;-79
2022/02/14 01:27:06;;;;;;;;;;;1.00;99.90;;;0.04;54.41;95148.25;10498192;28;1778;-78
2022/02/14 01:32:10;;;;;;;;;;;1.10;99.90;;;-0.10;54.65;95153.69;10500922;28;1661;-78
2022/02/14 01:37:13;;;;;;;;;;;2.10;99.90;;;0.00;53.89;95142.63;10508695;28;1838;-79
2022/02/14 01:42:17;;;;;;;;;;;2.20;99.90;;;-0.15;53.50;95142.97;10448911;22;2106;-70
2022/02/14 01:47:20;;;;;;;;;;;1.10;99.90;;;-0.02;52.21;95140.16;10431349;28;1855;-70
2022/02/14 01:52:23;;;;;;;;;;;1.10;99.90;;;-0.14;53.47;95127.94;10401159;28;2027;-69
2022/02/14 01:57:27;;;;;;;;;;;1.10;99.90;;;-0.09;53.44;95126.25;10397365;28;1946;-69
2022/02/14 02:02:30;;;;;;;;;;;1.10;99.90;;;-0.13;53.68;95111.84;10401981;28;2006;-68
2022/02/14 02:07:33;;;;;;;;;;;1.10;99.90;;;-0.19;52.83;95102.22;10400247;28;1953;-70
2022/02/14 02:12:36;;;;;;;;;;;1.10;99.90;;;-0.07;51.91;95100.41;10397973;28;2256;-69
2022/02/14 02:17:54;;;;;;;;;;;1.00;99.90;;;-0.01;51.27;95096.88;10397881;28;2039;-69
2022/02/14 02:22:58;;;;;;;;;;;1.10;99.90;;;0.04;51.08;95076.91;10395673;28;1918;-69
2022/02/14 02:28:08;;;;;;;;;;;1.20;99.90;;;0.04;50.63;95074.25;10396885;28;2047;-68
2022/02/14 02:33:12;;;;;;;;;;;1.20;99.90;;;0.10;50.26;95063.59;10398226;28;1852;-69
2022/02/14 02:38:16;;;;;;;;;;;1.20;99.90;;;0.16;49.80;95062.69;10389586;28;1995;-70
2022/02/14 02:43:20;;;;;;;;;;;1.20;99.90;;;0.04;50.52;95058.41;10398249;28;2003;-69
2022/02/14 02:48:24;;;;;;;;;;;1.20;99.90;;;0.06;49.39;95062.41;10402452;28;2046;-69
2022/02/14 02:53:28;;;;;;;;;;;1.30;99.90;;;0.14;49.19;95056.03;10397803;28;1880;-70
2022/02/14 02:58:31;;;;;;;;;;;1.30;99.90;;;0.14;48.72;95056.03;10397293;28;1955;-68
2022/02/14 03:03:34;;;;;;;;;;;1.30;99.90;;;0.00;50.03;95052.78;10397599;28;2060;-69
2022/02/14 03:08:37;;;;;;;;;;;1.30;99.90;;;0.11;49.48;95054.63;10397964;28;1955;-70
2022/02/14 03:13:40;;;;;;;;;;;1.30;99.90;;;0.21;48.19;95044.31;10395074;28;1898;-70
2022/02/14 03:18:43;;;;;;;;;;;1.30;99.90;;;0.24;48.34;95035.13;10390961;28;1891;-70
2022/02/14 03:23:47;;;;;;;;;;;1.40;99.90;;;0.30;48.17;95047.44;10393629;28;1957;-70
2022/02/14 03:28:50;;;;;;;;;;;1.50;99.90;;;0.33;47.26;95036.41;10392046;28;1866;-68
2022/02/14 03:33:54;;;;;;;;;;;1.50;99.90;;;0.31;47.12;95025.25;10394578;28;1812;-70
2022/02/14 03:38:57;;;;;;;;;;;1.50;99.90;;;0.37;47.52;95026.97;10387890;28;1885;-68
2022/02/14 03:44:01;;;;;;;;;;;1.50;99.90;;;0.38;46.52;95018.03;10388981;28;1914;-70
2022/02/14 03:49:04;;;;;;;;;;;1.60;99.50;;;0.41;45.94;95016.78;10393509;28;1820;-70
2022/02/14 03:54:07;;;;;;;;;;;1.50;98.80;;;0.39;47.26;95014.34;10392860;28;1973;-70
2022/02/14 03:59:10;;;;;;;;;;;1.60;99.50;;;0.48;46.09;95012.16;10389597;28;1900;-68
2022/02/14 04:04:13;;;;;;;;;;;1.60;98.90;;;0.41;46.10;95009.63;10395101;28;1923;-70
2022/02/14 04:09:18;;;;;;;;;;;1.60;98.60;;;0.41;45.89;95007.00;10400143;28;1861;-69
2022/02/14 04:14:21;;;;;;;;;;;1.60;98.50;;;0.38;44.90;95002.19;10395916;28;1836;-71
2022/02/14 04:19:24;;;;;;;;;;;1.50;97.60;;;0.29;46.80;94995.59;10394281;28;1839;-70
2022/02/14 04:24:27;;;;;;;;;;;1.50;98.50;;;0.42;45.47;94991.94;10388886;28;1973;-69
2022/02/14 04:29:30;;;;;;;;;;;1.50;97.90;;;0.35;45.50;94985.94;10392219;28;2050;-70
2022/02/14 04:34:33;;;;;;;;;;;1.50;97.70;;;0.43;44.33;94978.47;10394789;28;1838;-69
2022/02/14 04:39:37;;;;;;;;;;;1.60;97.10;;;0.35;45.45;94973.53;10399537;28;1947;-69
2022/02/14 04:44:40;;;;;;;;;;;1.50;97.60;;;0.28;46.42;94964.91;10406506;28;1984;-70
2022/02/14 04:49:43;;;;;;;;;;;1.50;98.00;;;0.30;45.81;94964.69;10417723;28;1831;-70
2022/02/14 04:54:47;;;;;;;;;;;1.40;97.60;;;0.23;46.57;94957.66;10410692;28;1856;-69
2022/02/14 04:59:51;;;;;;;;;;;1.40;97.90;;;0.30;45.49;94957.56;10392344;28;1898;-70
2022/02/14 05:04:54;;;;;;;;;;;1.40;97.40;;;0.51;44.41;94958.84;10405105;28;1952;-70
2022/02/14 05:09:58;;;;;;;;;;;1.50;96.80;;;0.38;45.18;94959.88;10398974;28;2093;-69
2022/02/14 05:15:02;;;;;;;;;;;1.60;97.10;;;0.50;45.48;94968.59;10412458;22;3617;-71
2022/02/14 05:20:06;;;;;;;;;;;1.60;97.00;;;0.46;45.32;94966.66;10406272;28;1877;-72
2022/02/14 05:25:10;;;;;;;;;;;1.60;97.00;;;0.39;45.74;94972.06;10404111;28;2263;-72
2022/02/14 05:30:13;;;;;;;;;;;1.60;97.30;;;0.30;47.25;94962.84;10405035;28;1844;-72
2022/02/14 05:35:16;;;;;;;;;;;1.60;98.10;;;0.20;48.19;94960.78;10401352;28;2063;-72
2022/02/14 05:40:19;;;;;;;;;;;1.50;99.00;;;0.18;49.55;94962.03;10402229;28;1896;-72
2022/02/14 05:45:23;;;;;;;;;;;1.40;99.70;;;0.34;46.73;94960.56;10402369;28;1914;-72
2022/02/14 05:50:26;;;;;;;;;;;1.40;98.70;;;0.36;48.11;94967.22;10405246;28;1856;-71
2022/02/14 05:55:29;;;;;;;;;;;1.40;99.50;;;0.51;47.04;94964.94;10399704;28;1972;-72
2022/02/14 06:00:32;;;;;;;;;;;1.50;99.40;;;0.63;46.48;94966.75;10396858;28;1900;-72
2022/02/14 06:05:35;;;;;;;;;;;1.60;99.10;;;0.69;46.86;94963.97;10406749;28;2329;-72
2022/02/14 06:10:38;;;;;;;;;;;1.70;98.80;;;0.84;46.31;94955.59;10410377;28;1849;-72
2022/02/14 06:15:41;;;;;;;;;;;1.80;98.50;;;0.93;45.95;94956.03;10403113;28;2047;-72
2022/02/14 06:20:47;;;;;;;;;;;1.90;98.30;;;1.06;46.09;94945.97;10409551;28;2312;-72
2022/02/14 06:25:52;;;;;;;;;;;2.00;98.30;;;1.18;45.01;94945.16;10398383;28;2023;-72
2022/02/14 06:30:55;;;;;;;;;;;2.10;97.90;;;1.31;44.74;94955.47;10397024;28;1828;-70
2022/02/14 06:35:58;;;;;;;;;;;2.20;97.50;;;1.41;44.82;94947.72;10404039;28;1912;-72
2022/02/14 06:41:01;;;;;;;;;;;2.40;97.70;;;1.45;44.68;94954.13;10402156;28;2003;-71
2022/02/14 06:46:04;;;;;;;;;;;2.50;97.60;;;1.59;45.01;94949.34;10403644;28;1910;-72
2022/02/14 06:51:07;;;;;;;;;;;2.50;97.90;;;1.70;44.80;94951.16;10402124;28;1895;-71
2022/02/14 06:56:10;;;;;;;;;;;2.60;97.70;;;1.96;44.01;94948.94;10404243;28;1817;-70
2022/02/14 07:01:13;;;;;;;;;;;2.80;97.70;;;2.20;43.90;94949.59;10397655;28;1898;-72
2022/02/14 07:06:17;;;;;;;;;;;3.00;97.50;;;2.40;44.85;94940.09;10403130;28;1945;-71
2022/02/14 07:11:20;;;;;;;;;;;3.20;98.40;;;2.54;43.51;94948.53;10395289;28;2066;-72
2022/02/14 07:16:22;;;;;;;;;;;3.40;97.30;;;2.75;42.31;94936.38;10404018;28;1876;-72
2022/02/14 07:21:26;;;;;;;;;;;3.50;96.60;;;2.96;42.48;94934.78;10396087;28;2027;-73
2022/02/14 07:26:29;;;;;;;;;;;3.80;97.00;;;3.21;42.07;94940.41;10398318;28;2065;-73
2022/02/14 07:31:32;;;;;;;;;;;3.90;96.80;;;3.45;41.06;94948.13;10403591;28;1836;-73
2022/02/14 07:36:37;;;;;;;;;;;4.10;96.10;;;3.78;40.47;94925.88;10403581;28;1856;-72
2022/02/14 07:41:40;;;;;;;;;;;4.50;95.90;;;3.95;40.34;94928.41;10414927;28;1999;-72
2022/02/14 07:46:44;;;;;;;;;;;4.80;95.10;;;4.21;39.97;94932.09;10398073;28;1926;-73
2022/02/14 07:51:47;;;;;;;;;;;4.90;94.80;;;4.24;39.72;94929.72;10418854;28;1869;-73
2022/02/14 07:56:50;;;;;;;;;;;5.00;94.30;;;4.44;39.35;94920.28;10396497;28;1948;-72
2022/02/14 08:01:53;;;;;;;;;;;5.20;93.90;;;4.58;38.49;94916.09;10398847;28;1915;-71
2022/02/14 08:06:56;;;;;;;;;;;5.30;93.30;;;4.88;38.57;94916.28;10393131;28;2041;-72
2022/02/14 08:11:59;;;;;;;;;;;5.50;93.50;;;4.99;38.51;94911.03;10398484;28;1878;-74
2022/02/14 08:17:02;;;;;;;;;;;5.70;93.30;;;5.30;39.03;94922.63;10391435;28;2118;-73
2022/02/14 08:22:05;;;;;;;;;;;5.80;93.50;;;5.68;36.53;94908.06;10390891;28;1921;-71
2022/02/14 08:27:09;;;;;;;;;;;6.10;92.10;;;5.56;37.89;94904.84;10399470;28;1816;-71
2022/02/14 08:32:14;;;;;;;;;;;6.40;92.50;;;5.45;37.99;94904.00;10387478;28;2008;-75
2022/02/14 08:37:17;;;;;;;;;;;6.30;92.20;;;5.24;37.75;94913.78;10395189;28;1912;-74
2022/02/14 08:42:21;;;;;;;;;;;6.20;91.50;;;5.29;38.27;94911.16;10398225;28;1941;-74
2022/02/14 08:47:24;;;;;;;;;;;6.10;92.10;;;5.86;36.74;94901.44;10390987;28;1848;-74
2022/02/14 08:52:27;;;;;;;;;;;6.40;91.80;;;6.20;35.86;94899.06;10398652;28;1853;-74
2022/02/14 08:57:30;;;;;;;;;;;7.00;91.10;;;6.27;35.85;94904.16;10396139;28;1837;-73
2022/02/14 09:02:33;;;;;;;;;;;7.00;90.30;;;6.36;36.39;94897.19;10395910;28;1886;-73
2022/02/14 09:07:36;;;;;;;;;;;7.10;90.30;;;6.30;35.32;94898.25;10397495;28;1791;-73
2022/02/14 09:12:39;;;;;;;;;;;7.20;89.00;;;6.20;36.35;94893.75;10385330;28;1947;-72
2022/02/14 09:17:42;;;;;;;;;;;7.20;89.30;;;6.49;34.81;94894.81;10406985;28;1876;-74
2022/02/14 09:22:46;;;;;;;;;;;7.20;88.70;;;6.73;34.59;94891.53;10404498;28;1958;-73
2022/02/14 09:27:49;;;;;;;;;;;7.40;88.40;;;6.82;33.66;94881.91;10407958;28;1734;-73
2022/02/14 09:32:52;;;;;;;;;;;7.60;87.90;;;6.90;34.46;94876.00;10400953;28;1710;-75
2022/02/14 09:37:55;;;;;;;;;;;7.70;87.60;;;7.07;33.46;94874.91;10399369;28;1903;-73
2022/02/14 09:42:58;;;;;;;;;;;8.00;87.20;;;7.20;34.22;94859.06;10401713;28;1919;-75
2022/02/14 09:48:01;;;;;;;;;;;8.00;87.10;;;7.36;32.39;94864.31;10404218;28;1932;-73
2022/02/14 09:53:04;;;;;;;;;;;8.10;86.00;;;7.58;31.72;94860.19;10398961;28;2005;-73
2022/02/14 09:58:18;;;;;;;;;;;8.40;85.20;;;7.74;33.57;94868.91;10404296;28;1868;-74
2022/02/14 10:03:22;;;;;;;;;;;8.50;86.50;;;7.98;32.76;94863.69;10402321;28;1914;-75
2022/02/14 10:08:25;;;;;;;;;;;8.60;86.10;;;8.60;30.84;94856.75;10401520;28;1817;-74
2022/02/14 10:13:28;;;;;;;;;;;9.00;84.40;;;9.19;30.21;94858.25;10411302;28;1821;-73
2022/02/14 10:18:31;;;;;;;;;;;9.60;83.70;;;9.79;29.29;94857.72;10414360;28;1918;-74
2022/02/14 10:23:53;;;;;;;;;;;10.30;83.10;;;10.41;28.91;94855.72;10396708;28;1934;-74
2022/02/14 10:28:56;;;;;;;;;;;11.00;99.90;;;10.93;27.63;94853.69;10410781;28;2171;-75
2022/02/14 10:33:59;;;;;;;;;;;11.10;81.20;;;11.17;27.99;94848.13;10393825;28;1946;-75
2022/02/14 10:39:02;;;;;;;;;;;11.70;81.40;;;11.50;27.81;94848.00;10418702;28;1897;-74
2022/02/14 10:44:06;;;;;;;;;;;;;;;11.79;25.75;94842.28;10401933;28;2248;-75
2022/02/14 10:49:10;;;;;;;;;;;;;;;11.57;27.49;94843.00;10398886;28;1853;-74
2022/02/14 10:54:28;;;;;;;;;;;;;;;11.59;26.58;94832.75;10403245;28;1837;-73
2022/02/14 10:59:33;;;;;;;;;;;;;;;10.97;28.03;94829.72;10400313;28;1821;-73
2022/02/14 11:04:40;;;;;;;;;;;;;;;11.09;27.61;94819.25;10401110;28;1973;-74
2022/02/14 11:09:44;;;;;;;;;;;;;;;10.78;27.43;94814.47;10433108;28;1888;-75
2022/02/14 11:14:50;;;;;;;;;;;;;;;10.55;28.08;94812.75;10421106;28;1825;-73
2022/02/14 11:19:54;;;;;;;;;;;;;;;10.58;28.23;94793.34;10423759;28;1889;-73
2022/02/14 11:24:57;;;;;;;;;;;;;;;10.78;28.88;94800.22;10395355;28;1982;-73
2022/02/14 11:30:02;;;;;;;;;;;;;;;10.86;28.58;94790.66;10398402;28;1860;-74
2022/02/14 11:35:14;;;;;;;;;;;;;;;10.81;28.87;94787.00;10403739;28;1881;-73
2022/02/14 11:40:18;;;;;;;;;;;;;;;10.92;28.87;94773.34;10393457;28;1806;-74
2022/02/14 11:45:22;;;;;;;;;;;;;;;11.02;27.85;94765.09;10396810;28;2017;-75
2022/02/14 11:50:25;;;;;;;;;;;;;;;10.96;27.88;94747.47;10404955;28;1822;-74
2022/02/14 11:55:34;;;;;;;;;;;;;;;11.05;28.42;94753.72;10421637;28;1902;-73
2022/02/14 12:00:38;;;;;;;;;;;;;;;11.03;28.67;94750.53;10415181;28;1809;-73
2022/02/14 12:05:42;;;;;;;;;;;;;;;11.16;28.69;94744.34;10409847;28;1984;-73
2022/02/14 12:10:45;;;;;;;;;;;;;;;11.32;27.84;94745.59;10388825;28;1869;-74
2022/02/14 12:21:11;;;;;;;;;;;;;;;12.17;26.74;94718.84;10442081;22;2420;-69
2022/02/14 12:26:34;;;;;;;;;;;12.50;74.00;;;12.70;26.54;94709.88;10425700;28;1906;-70
2022/02/14 12:31:37;;;;;;;;;;;12.90;88.90;;;13.31;25.79;94713.53;10424251;28;1876;-69
2022/02/14 12:36:40;;;;;;;;;;;13.40;89.90;;;12.98;25.27;94700.44;10405914;28;1849;-70
2022/02/14 12:41:43;;;;;;;;;;;13.60;89.00;;;12.90;25.42;94703.88;10409066;28;1881;-68
2022/02/14 12:46:46;;;;;;;;;;;13.60;88.90;;;12.83;26.03;94690.06;10404977;28;1922;-70
2022/02/14 12:51:49;;;;;;;;;;;13.60;89.20;;;12.93;27.84;94692.47;10406439;28;1817;-69
2022/02/14 12:56:54;;;;;;;;;;;13.50;91.50;;;12.64;28.05;94690.34;10403790;28;1773;-69
2022/02/14 13:01:56;;;;;;;;;;;13.40;99.90;;;12.59;30.18;94686.97;10416414;28;1837;-69
2022/02/14 13:07:00;;;;;;;;;;;13.40;99.90;;;12.37;30.24;94669.78;10401098;28;1980;-69
2022/02/14 13:12:03;;;;;;;;;;;13.20;99.90;;;12.33;31.18;94668.81;10408213;28;1978;-69
2022/02/14 13:17:06;;;;;;;;;;;13.20;99.90;;;12.43;31.39;94668.53;10409450;28;1976;-68
2022/02/14 13:22:09;;;;;;;;;;;13.30;99.90;;;12.78;31.44;94665.94;10416648;28;1860;-69
2022/02/14 13:27:14;;;;;;;;;;;13.30;99.90;;;12.57;32.36;94667.63;10411551;28;1976;-69
2022/02/14 13:32:17;;;;;;;;;;;13.40;99.90;;;12.19;32.72;94668.13;10416627;28;1829;-70
2022/02/14 13:37:25;;;;;;;;;;;13.30;99.90;;;12.44;33.36;94659.34;10413592;28;1895;-70
2022/02/14 13:42:29;;;;;;;;;;;13.10;99.90;;;12.35;33.84;94655.84;10417465;28;1875;-68
2022/02/14 13:47:32;;;;;;;;;;;13.20;99.90;;;12.32;34.03;94655.66;10400608;28;1952;-67
2022/02/14 13:52:34;;;;;;;;;;;13.30;99.90;;;12.14;35.06;94654.78;10399908;28;1890;-69
2022/02/14 13:57:38;;;;;;;;;;;13.10;99.90;;;11.99;35.16;94647.91;10412176;28;1797;-69
2022/02/14 14:02:41;;;;;;;;;;;12.90;99.90;;;11.94;35.74;94649.94;10409469;28;1876;-69
2022/02/14 14:07:48;;;;;;;;;;;12.60;99.90;;;11.75;36.59;94650.91;10406018;28;2009;-68
2022/02/14 14:12:53;;;;;;;;;;;12.60;99.90;;;11.74;36.26;94654.72;10419711;28;1885;-70
2022/02/14 14:17:57;;;;;;;;;;;12.60;99.90;;;11.95;35.74;94644.25;10416206;28;1869;-70
2022/02/14 14:23:00;;;;;;;;;;;12.60;99.90;;;11.80;36.46;94650.00;10413912;28;1888;-70
2022/02/14 14:28:02;;;;;;;;;;;12.60;99.90;;;11.58;36.77;94648.94;10411361;28;2164;-69
2022/02/14 14:33:05;;;;;;;;;;;12.40;99.90;;;11.38;37.46;94649.41;10410430;28;1795;-71
2022/02/14 14:38:10;;;;;;;;;;;;;;;11.34;38.64;94646.53;10407068;28;1829;-69
2022/02/14 14:43:13;;;;;;;;;;;;;;;11.05;43.28;94646.13;10411184;28;1804;-69
2022/02/14 14:48:17;;;;;;;;;;;;;;;10.87;45.75;94655.16;10406777;28;1914;-69
2022/02/14 14:53:21;;;;;;;;;;;;;;;11.04;45.61;94650.72;10405732;28;1837;-69
2022/02/14 14:58:25;;;;;;;;;;;;;;;10.68;46.49;94647.22;10396595;28;1860;-73
2022/02/14 15:03:28;;;;;;;;;;;11.60;99.90;;;10.76;46.59;94649.22;10410848;28;2298;-69
2022/02/14 15:08:32;;;;;;;;;;;11.60;99.90;;;10.74;45.54;94657.56;10406597;28;1935;-71
2022/02/14 15:13:34;;;;;;;;;;;11.50;99.90;;;10.49;46.76;94661.56;10411617;28;1826;-70
2022/02/14 15:18:38;;;;;;;;;;;11.30;99.90;;;10.34;47.94;94669.16;10407500;28;1825;-70
2022/02/14 15:23:44;;;;;;;;;;;;;;;10.12;49.36;94667.94;10413441;28;1972;-71
2022/02/14 15:28:48;;;;;;;;;;;;;;;9.80;50.64;94658.03;10409111;28;1765;-70
2022/02/14 15:33:51;;;;;;;;;;;;;;;9.80;50.25;94657.22;10409239;28;1820;-70
2022/02/14 15:38:55;;;;;;;;;;;;;;;10.00;50.43;94659.56;10408315;28;1884;-70
2022/02/14 15:43:58;;;;;;;;;;;;;;;9.93;51.50;94659.94;10408610;28;1918;-71
2022/02/14 15:49:03;;;;;;;;;;;;;;;9.71;52.38;94652.53;10406669;28;1921;-72
2022/02/14 15:54:07;;;;;;;;;;;;;;;9.29;54.42;94660.75;10413450;28;1823;-72
2022/02/14 15:59:11;;;;;;;;;;;;;;;9.05;55.60;94661.66;10405433;28;1891;-70
2022/02/14 16:04:15;;;;;;;;;;;;;;;8.94;55.60;94661.00;10404190;28;1911;-71
2022/02/14 16:09:19;;;;;;;;;;;;;;;8.91;55.75;94655.44;10399303;28;1918;-70
2022/02/14 16:14:23;;;;;;;;;;;;;;;8.82;56.76;94651.78;10411143;28;1876;-71
2022/02/14 16:19:27;;;;;;;;;;;;;;;8.81;57.06;94636.81;10401595;28;1836;-71
2022/02/14 16:24:31;;;;;;;;;;;;;;;8.63;58.48;94625.00;10403888;28;1914;-70
2022/02/14 16:29:35;;;;;;;;;;;;;;;8.48;59.24;94627.88;10403210;28;1979;-71
2022/02/14 16:34:39;;;;;;;;;;;;;;;8.28;60.11;94620.88;10405658;28;1804;-71
2022/02/14 16:39:42;;;;;;;;;;;;;;;8.07;61.38;94623.78;10407792;28;1801;-70
2022/02/14 16:44:46;;;;;;;;;;;8.90;99.90;;;7.87;61.95;94626.69;10406302;28;1985;-70
2022/02/14 16:49:54;;;;;;;;;;;9.00;99.90;;;7.71;63.10;94630.63;10395187;28;1890;-71
2022/02/14 16:54:56;;;;;;;;;;;8.80;99.90;;;7.63;63.33;94637.34;10405750;28;1911;-71
2022/02/14 16:59:59;;;;;;;;;;;8.70;99.90;;;7.56;64.27;94637.69;10404711;28;1817;-70
2022/02/14 17:05:02;;;;;;;;;;;8.50;99.90;;;7.54;65.01;94644.41;10397529;28;1932;-70
2022/02/14 17:10:05;;;;;;;;;;;8.50;99.90;;;7.54;64.96;94649.75;10392483;28;1820;-69
2022/02/14 17:15:08;;;;;;;;;;;8.50;99.90;;;7.46;64.89;94659.19;10409190;28;1845;-70
2022/02/14 17:20:12;;;;;;;;;;;8.40;99.90;;;7.38;64.77;94675.03;10404777;28;1828;-70
2022/02/14 17:25:15;;;;;;;;;;;8.40;99.90;;;7.31;64.30;94683.38;10412406;28;1910;-68
2022/02/14 17:30:19;;;;;;;;;;;8.30;99.90;;;7.19;64.53;94690.94;10405672;28;1789;-69
2022/02/14 17:35:22;;;;;;;;;;;8.10;99.90;;;7.08;65.14;94689.44;10402535;28;1804;-70
2022/02/14 17:40:25;;;;;;;;;;;8.00;99.90;;;7.09;64.87;94691.03;10402228;28;1829;-72
2022/02/14 17:45:28;;;;;;;;;;;8.20;99.90;;;7.01;64.55;94685.19;10433522;28;1910;-71
2022/02/14 17:50:31;;;;;;;;;;;8.10;99.90;;;6.92;65.09;94697.53;10413589;28;1832;-71
2022/02/14 17:55:35;;;;;;;;;;;8.00;99.90;;;6.88;64.87;94707.19;10419162;28;1947;-70
2022/02/14 18:00:39;;;;;;;;;;;8.00;99.90;;;6.81;66.40;94712.03;10408138;28;1849;-71
2022/02/14 18:05:42;;;;;;;;;;;7.90;99.90;;;6.72;66.51;94727.81;10409285;28;1918;-71
2022/02/14 18:10:46;;;;;;;;;;;7.90;99.90;;;6.69;66.67;94730.25;10407759;28;1722;-71
2022/02/14 18:15:49;;;;;;;;;;;8.60;99.90;;;6.64;66.54;94736.41;10417550;28;1896;-70
2022/02/14 18:20:52;;;;;;;;;;;7.80;99.90;;;6.72;66.28;94756.41;10429136;22;3472;-77
2022/02/14 18:25:56;;;;;;;;;;;7.70;99.90;;;6.55;66.67;94763.94;10345769;28;1924;-79
2022/02/14 18:31:00;;;;;;;;;;;7.70;99.90;;;6.47;66.97;94768.78;10329683;28;1817;-78
2022/02/14 18:36:03;;;;;;;;;;;7.90;99.90;;;6.46;67.29;94763.72;10343028;28;1858;-81
2022/02/14 18:41:07;;;;;;;;;;;7.50;99.90;;;6.40;67.66;94776.28;10330032;28;1780;-79
2022/02/14 18:46:20;;;;;;;;;;;7.50;99.90;;;6.33;68.34;94780.31;10326935;28;1906;-76
2022/02/14 18:51:23;;;;;;;;;;;7.40;99.90;;;6.27;69.08;94774.16;10339808;28;1899;-77
2022/02/14 18:56:26;;;;;;;;;;;7.40;99.90;;;6.21;69.29;94777.91;10344653;28;1880;-79
2022/02/14 19:01:29;;;;;;;;;;;7.80;99.90;;;6.20;69.66;94771.00;10329586;28;1893;-76
2022/02/14 19:06:52;;;;;;;;;;;7.60;99.90;;;6.17;69.57;94776.84;10334960;28;1911;-77
2022/02/14 19:11:56;;;;;;;;;;;7.30;99.90;;;6.16;70.41;94781.38;10352615;28;1906;-78
2022/02/14 19:17:19;;;;;;;;;;;7.20;99.90;;;6.23;69.25;94791.78;10329627;28;1857;-81
2022/02/14 19:22:22;;;;;;;;;;;7.20;99.90;;;6.02;69.76;94800.91;10358600;28;1864;-80
2022/02/14 19:27:25;;;;;;;;;;;7.20;99.90;;;5.99;70.49;94796.09;10368005;28;1895;-82
2022/02/14 19:32:28;;;;;;;;;;;7.10;99.90;;;5.89;70.99;94792.34;10343118;28;1865;-80
2022/02/14 19:37:31;;;;;;;;;;;7.00;99.90;;;5.82;72.05;94802.47;10330515;28;1884;-81
2022/02/14 19:42:35;;;;;;;;;;;7.00;99.90;;;5.92;71.50;94804.38;10324955;28;2002;-79
2022/02/14 19:47:41;;;;;;;;;;;7.00;99.90;;;6.00;70.50;94825.19;10328856;28;1907;-80
2022/02/14 19:52:45;;;;;;;;;;;7.10;99.90;;;6.00;70.80;94824.38;10342890;28;1869;-79
2022/02/14 19:57:50;;;;;;;;;;;7.10;99.90;;;6.02;71.54;94831.03;10340653;28;1774;-78
2022/02/14 20:02:54;;;;;;;;;;;7.10;99.90;;;6.06;71.92;94842.00;10323799;28;1822;-78
2022/02/14 20:07:56;;;;;;;;;;;7.10;99.90;;;6.08;72.65;94847.84;10343522;28;1914;-77
2022/02/14 20:12:59;;;;;;;;;;;7.10;99.90;;;6.03;73.85;94856.66;10319215;28;1627;-78
2022/02/14 20:18:02;;;;;;;;;;;7.10;99.90;;;6.04;73.96;94847.56;10327667;28;1884;-77
2022/02/14 20:23:07;;;;;;;;;;;7.10;99.90;;;5.92;74.93;94855.88;10353297;28;1882;-81
2022/02/14 20:28:09;;;;;;;;;;;7.10;99.90;;;5.84;76.22;94859.00;10338446;28;1895;-79
2022/02/14 20:33:18;;;;;;;;;;;7.00;99.90;;;5.72;76.79;94871.78;10336454;28;1807;-76
2022/02/14 20:38:21;;;;;;;;;;;7.50;99.90;;;5.61;77.64;94871.00;10337356;28;1780;-79
2022/02/14 20:43:26;;;;;;;;;;;6.80;99.90;;;5.60;78.22;94873.94;10415521;22;2656;-74
2022/02/14 20:48:29;;;;;;;;;;;6.70;99.90;;;5.63;79.13;94884.06;10394894;28;1910;-74
2022/02/14 20:53:33;;;;;;;;;;;6.70;99.90;;;5.64;79.05;94877.66;10404018;28;1821;-75
2022/02/14 20:58:37;;;;;;;;;;;7.00;99.90;;;5.63;79.40;94884.06;10394707;28;1886;-74
2022/02/14 21:03:40;;;;;;;;;;;6.70;99.90;;;5.60;79.95;94877.41;10394679;28;1805;-76
2022/02/14 21:08:44;;;;;;;;;;;6.70;99.90;;;5.57;80.52;94869.13;10393865;28;1910;-73
2022/02/14 21:13:48;;;;;;;;;;;6.70;99.90;;;5.57;80.73;94871.78;10394592;28;1820;-74
2022/02/14 21:18:53;;;;;;;;;;;6.70;99.90;;;5.62;81.00;94871.78;10397489;28;1896;-74
2022/02/14 21:23:56;;;;;;;;;;;6.70;99.90;;;5.76;80.60;94872.06;10401868;28;1948;-75
2022/02/14 21:29:20;;;;;;;;;;;6.70;99.90;;;5.92;79.63;94865.72;10401381;28;2007;-74
2022/02/14 21:34:22;;;;;;;;;;;6.80;99.90;;;5.96;79.16;94877.44;10402887;28;1769;-74
2022/02/14 21:39:26;;;;;;;;;;;6.90;99.90;;;5.90;79.20;94881.16;10403736;28;1822;-75
2022/02/14 21:44:29;;;;;;;;;;;7.00;99.90;;;5.87;79.29;94885.16;10398979;28;1810;-74
2022/02/14 21:49:34;;;;;;;;;;;6.90;99.90;;;5.88;79.08;94884.09;10392810;28;1939;-74
2022/02/14 21:54:37;;;;;;;;;;;6.90;99.90;;;5.91;78.90;94883.56;10398296;28;1894;-75
2022/02/14 21:59:41;;;;;;;;;;;6.90;99.90;;;5.99;77.93;94882.28;10394606;28;1844;-74
2022/02/14 22:10:07;;;;;;;;;;;7.00;99.90;;;6.09;77.57;94870.78;10394559;28;1914;-76
2022/02/14 22:15:11;;;;;;;;;;;7.00;99.90;;;6.16;76.96;94876.66;10394329;28;2170;-75
2022/02/14 22:20:15;;;;;;;;;;;7.10;99.90;;;6.23;76.61;94877.19;10396039;28;1824;-75
2022/02/14 22:25:18;;;;;;;;;;;7.10;99.90;;;6.28;76.43;94881.72;10408846;28;1850;-75
2022/02/14 22:30:22;;;;;;;;;;;7.20;99.90;;;6.22;76.06;94875.59;10412025;28;1961;-74
2022/02/14 22:35:25;;;;;;;;;;;7.20;99.90;;;6.27;76.01;94888.13;10409305;28;1864;-71
2022/02/14 22:40:28;;;;;;;;;;;7.20;99.90;;;6.27;75.47;94896.94;10408156;28;1844;-72
2022/02/14 22:45:31;;;;;;;;;;;7.20;99.90;;;6.24;75.47;94910.84;10402067;28;1832;-72
2022/02/14 22:50:36;;;;;;;;;;;7.20;99.90;;;6.29;75.33;94923.34;10396198;28;2707;-72
2022/02/14 22:55:38;;;;;;;;;;;7.20;99.90;;;6.29;75.62;94921.47;10389818;28;3468;-72
2022/02/14 23:00:41;;;;;;;;;;;7.20;99.90;;;6.30;75.58;94932.97;10388971;28;1812;-73
2022/02/14 23:05:44;;;;;;;;;;;7.30;99.90;;;6.30;75.58;94927.63;10413846;28;1977;-74
2022/02/14 23:16:08;;;;;;;;;;;7.20;99.90;;;6.31;75.78;94940.72;10397414;28;1860;-75
2022/02/14 23:21:11;;;;;;;;;;;7.20;99.90;;;6.35;75.53;94939.09;10388809;28;1777;-75
2022/02/14 23:26:14;;;;;;;;;;;7.30;99.90;;;6.26;76.72;94945.25;10387236;28;1981;-75
2022/02/14 23:31:18;;;;;;;;;;;7.30;99.90;;;6.21;77.01;94938.84;10382410;28;1823;-75
2022/02/14 23:36:21;;;;;;;;;;;7.20;99.90;;;6.18;76.62;94935.91;10383128;28;1857;-75
2022/02/14 23:41:24;;;;;;;;;;;7.50;99.90;;;6.17;77.23;94934.28;10388088;28;1852;-75
2022/02/14 23:46:27;;;;;;;;;;;7.10;99.90;;;6.06;77.19;94930.81;10398204;28;1910;-74
2022/02/14 23:51:30;;;;;;;;;;;7.10;99.90;;;6.06;77.54;94914.81;10396910;28;1789;-75
2022/02/14 23:56:33;;;;;;;;;;;7.00;99.90;;;6.01;78.94;94922.00;10399643;28;1817;-75
